sensor_id;sensor_type;location;lat;lon;timestamp;P1;durP1;ratioP1;P2;durP2;ratioP2
11608;SDS011;5860;52.018;8.536;2023-07-09T00:01:50;9.18;;;7.28;;
11608;SDS011;5860;52.018;8.536;2023-07-09T00:04:17;10.90;;;7.97;;
11608;SDS011;5860;52.018;8.536;2023-07-09T00:06:45;12.57;;;8.95;;
11608;SDS011;5860;52.018;8.536;2023-07-09T00:09:13;12.40;;;8.90;;
11608;SDS011;5860;52.018;8.536;2023-07-09T00:11:43;9.00;;;8.10;;
11608;SDS011;5860;52.018;8.536;2023-07-09T00:14:11;9.60;;;7.95;;
11608;SDS011;5860;52.018;8.536;2023-07-09T00:16:40;12.88;;;7.90;;
11608;SDS011;5860;52.018;8.536;2023-07-09T00:19:13;11.52;;;8.10;;
11608;SDS011;5860;52.018;8.536;2023-07-09T00:21:46;11.82;;;8.10;;
11608;SDS011;5860;52.018;8.536;2023-07-09T00:24:15;8.90;;;6.90;;
11608;SDS011;5860;52.018;8.536;2023-07-09T00:26:42;8.07;;;6.60;;
11608;SDS011;5860;52.018;8.536;2023-07-09T00:29:10;10.85;;;7.60;;
11608;SDS011;5860;52.018;8.536;2023-07-09T00:31:38;8.63;;;6.57;;
11608;SDS011;5860;52.018;8.536;2023-07-09T00:34:11;9.93;;;6.60;;
11608;SDS011;5860;52.018;8.536;2023-07-09T00:36:39;7.47;;;6.55;;
11608;SDS011;5860;52.018;8.536;2023-07-09T00:39:20;12.90;;;6.30;;
11608;SDS011;5860;52.018;8.536;2023-07-09T00:41:49;9.57;;;6.20;;
11608;SDS011;5860;52.018;8.536;2023-07-09T00:49:15;6.80;;;5.70;;
11608;SDS011;5860;52.018;8.536;2023-07-09T00:51:56;7.83;;;5.87;;
11608;SDS011;5860;52.018;8.536;2023-07-09T00:54:32;8.93;;;5.73;;
11608;SDS011;5860;52.018;8.536;2023-07-09T00:57:11;6.77;;;5.63;;
11608;SDS011;5860;52.018;8.536;2023-07-09T00:59:44;6.57;;;5.87;;
11608;SDS011;5860;52.018;8.536;2023-07-09T01:02:15;11.07;;;5.87;;
11608;SDS011;5860;52.018;8.536;2023-07-09T01:04:42;7.50;;;5.93;;
11608;SDS011;5860;52.018;8.536;2023-07-09T01:07:09;11.90;;;6.17;;
11608;SDS011;5860;52.018;8.536;2023-07-09T01:09:36;7.53;;;6.10;;
11608;SDS011;5860;52.018;8.536;2023-07-09T01:12:08;9.03;;;7.03;;
11608;SDS011;5860;52.018;8.536;2023-07-09T01:14:36;15.13;;;7.70;;
11608;SDS011;5860;52.018;8.536;2023-07-09T01:17:05;10.53;;;8.80;;
11608;SDS011;5860;52.018;8.536;2023-07-09T01:19:41;12.00;;;8.60;;
11608;SDS011;5860;52.018;8.536;2023-07-09T01:22:13;12.83;;;8.90;;
11608;SDS011;5860;52.018;8.536;2023-07-09T01:25:02;11.13;;;8.50;;
11608;SDS011;5860;52.018;8.536;2023-07-09T01:27:38;10.07;;;8.60;;
11608;SDS011;5860;52.018;8.536;2023-07-09T01:30:15;13.93;;;9.37;;
11608;SDS011;5860;52.018;8.536;2023-07-09T01:32:49;11.63;;;9.30;;
11608;SDS011;5860;52.018;8.536;2023-07-09T01:35:18;11.63;;;8.87;;
11608;SDS011;5860;52.018;8.536;2023-07-09T01:37:48;10.80;;;9.10;;
11608;SDS011;5860;52.018;8.536;2023-07-09T01:40:16;10.60;;;9.03;;
11608;SDS011;5860;52.018;8.536;2023-07-09T01:42:58;10.73;;;8.53;;
11608;SDS011;5860;52.018;8.536;2023-07-09T01:45:25;12.03;;;9.10;;
11608;SDS011;5860;52.018;8.536;2023-07-09T01:47:54;10.00;;;8.60;;
11608;SDS011;5860;52.018;8.536;2023-07-09T01:50:22;11.67;;;8.93;;
11608;SDS011;5860;52.018;8.536;2023-07-09T01:52:51;10.83;;;8.30;;
11608;SDS011;5860;52.018;8.536;2023-07-09T01:55:19;12.77;;;9.13;;
11608;SDS011;5860;52.018;8.536;2023-07-09T01:57:46;11.90;;;8.23;;
11608;SDS011;5860;52.018;8.536;2023-07-09T02:00:16;11.17;;;7.97;;
11608;SDS011;5860;52.018;8.536;2023-07-09T02:02:44;9.53;;;8.17;;
11608;SDS011;5860;52.018;8.536;2023-07-09T02:05:13;9.60;;;8.07;;
11608;SDS011;5860;52.018;8.536;2023-07-09T02:07:46;13.07;;;8.20;;
11608;SDS011;5860;52.018;8.536;2023-07-09T02:10:14;10.30;;;7.60;;
11608;SDS011;5860;52.018;8.536;2023-07-09T02:12:42;12.50;;;8.37;;
11608;SDS011;5860;52.018;8.536;2023-07-09T02:15:10;7.87;;;7.07;;
11608;SDS011;5860;52.018;8.536;2023-07-09T02:17:37;9.67;;;7.97;;
11608;SDS011;5860;52.018;8.536;2023-07-09T02:20:05;10.30;;;7.77;;
11608;SDS011;5860;52.018;8.536;2023-07-09T02:22:34;10.33;;;7.90;;
11608;SDS011;5860;52.018;8.536;2023-07-09T02:25:01;9.60;;;8.10;;
11608;SDS011;5860;52.018;8.536;2023-07-09T02:27:29;9.63;;;7.80;;
11608;SDS011;5860;52.018;8.536;2023-07-09T02:29:56;8.00;;;7.20;;
11608;SDS011;5860;52.018;8.536;2023-07-09T02:32:23;8.87;;;7.33;;
11608;SDS011;5860;52.018;8.536;2023-07-09T02:34:52;10.50;;;8.10;;
11608;SDS011;5860;52.018;8.536;2023-07-09T02:37:21;8.47;;;7.47;;
11608;SDS011;5860;52.018;8.536;2023-07-09T02:39:50;8.93;;;7.17;;
11608;SDS011;5860;52.018;8.536;2023-07-09T02:42:18;9.77;;;7.43;;
11608;SDS011;5860;52.018;8.536;2023-07-09T02:44:46;9.53;;;7.43;;
11608;SDS011;5860;52.018;8.536;2023-07-09T02:47:14;8.80;;;7.90;;
11608;SDS011;5860;52.018;8.536;2023-07-09T02:49:41;9.57;;;7.40;;
11608;SDS011;5860;52.018;8.536;2023-07-09T02:52:08;9.33;;;8.33;;
11608;SDS011;5860;52.018;8.536;2023-07-09T02:54:35;8.47;;;7.33;;
11608;SDS011;5860;52.018;8.536;2023-07-09T02:57:02;9.60;;;7.20;;
11608;SDS011;5860;52.018;8.536;2023-07-09T02:59:29;9.07;;;8.17;;
11608;SDS011;5860;52.018;8.536;2023-07-09T03:01:57;10.00;;;7.80;;
11608;SDS011;5860;52.018;8.536;2023-07-09T03:04:24;10.00;;;7.43;;
11608;SDS011;5860;52.018;8.536;2023-07-09T03:06:51;10.60;;;7.40;;
11608;SDS011;5860;52.018;8.536;2023-07-09T03:09:19;10.77;;;7.90;;
11608;SDS011;5860;52.018;8.536;2023-07-09T03:11:46;9.83;;;7.40;;
11608;SDS011;5860;52.018;8.536;2023-07-09T03:14:15;9.80;;;7.77;;
11608;SDS011;5860;52.018;8.536;2023-07-09T03:16:42;10.83;;;7.27;;
11608;SDS011;5860;52.018;8.536;2023-07-09T03:19:10;8.77;;;7.50;;
11608;SDS011;5860;52.018;8.536;2023-07-09T03:21:37;9.40;;;7.43;;
11608;SDS011;5860;52.018;8.536;2023-07-09T03:24:04;9.30;;;7.80;;
11608;SDS011;5860;52.018;8.536;2023-07-09T03:26:32;10.97;;;7.40;;
11608;SDS011;5860;52.018;8.536;2023-07-09T03:28:59;11.30;;;6.87;;
11608;SDS011;5860;52.018;8.536;2023-07-09T03:31:26;8.43;;;7.37;;
11608;SDS011;5860;52.018;8.536;2023-07-09T03:33:53;10.30;;;7.37;;
11608;SDS011;5860;52.018;8.536;2023-07-09T03:36:20;9.63;;;7.17;;
11608;SDS011;5860;52.018;8.536;2023-07-09T03:38:48;8.27;;;6.67;;
11608;SDS011;5860;52.018;8.536;2023-07-09T03:41:15;10.20;;;7.23;;
11608;SDS011;5860;52.018;8.536;2023-07-09T03:43:42;10.83;;;7.00;;
11608;SDS011;5860;52.018;8.536;2023-07-09T03:46:10;8.00;;;7.00;;
11608;SDS011;5860;52.018;8.536;2023-07-09T03:48:37;8.93;;;6.90;;
11608;SDS011;5860;52.018;8.536;2023-07-09T03:51:04;7.73;;;6.80;;
11608;SDS011;5860;52.018;8.536;2023-07-09T03:53:32;8.50;;;7.20;;
11608;SDS011;5860;52.018;8.536;2023-07-09T03:55:59;11.37;;;7.30;;
11608;SDS011;5860;52.018;8.536;2023-07-09T03:58:33;10.17;;;7.13;;
11608;SDS011;5860;52.018;8.536;2023-07-09T04:00:59;11.33;;;8.33;;
11608;SDS011;5860;52.018;8.536;2023-07-09T04:03:27;9.73;;;7.80;;
11608;SDS011;5860;52.018;8.536;2023-07-09T04:05:54;9.63;;;8.17;;
11608;SDS011;5860;52.018;8.536;2023-07-09T04:08:21;11.13;;;8.00;;
11608;SDS011;5860;52.018;8.536;2023-07-09T04:10:48;10.43;;;8.15;;
11608;SDS011;5860;52.018;8.536;2023-07-09T04:13:18;9.53;;;7.90;;
11608;SDS011;5860;52.018;8.536;2023-07-09T04:15:45;8.60;;;7.70;;
11608;SDS011;5860;52.018;8.536;2023-07-09T04:18:13;9.10;;;7.60;;
11608;SDS011;5860;52.018;8.536;2023-07-09T04:20:40;9.77;;;8.05;;
11608;SDS011;5860;52.018;8.536;2023-07-09T04:23:07;9.73;;;8.05;;
11608;SDS011;5860;52.018;8.536;2023-07-09T04:25:35;7.93;;;7.13;;
11608;SDS011;5860;52.018;8.536;2023-07-09T04:28:02;11.25;;;8.07;;
11608;SDS011;5860;52.018;8.536;2023-07-09T04:30:29;9.95;;;7.82;;
11608;SDS011;5860;52.018;8.536;2023-07-09T04:32:56;9.38;;;8.13;;
11608;SDS011;5860;52.018;8.536;2023-07-09T04:35:23;11.68;;;7.93;;
11608;SDS011;5860;52.018;8.536;2023-07-09T04:37:51;9.70;;;7.05;;
11608;SDS011;5860;52.018;8.536;2023-07-09T04:40:18;11.52;;;7.78;;
11608;SDS011;5860;52.018;8.536;2023-07-09T04:42:45;8.93;;;7.47;;
11608;SDS011;5860;52.018;8.536;2023-07-09T04:45:12;8.32;;;7.43;;
11608;SDS011;5860;52.018;8.536;2023-07-09T04:47:40;9.90;;;7.88;;
11608;SDS011;5860;52.018;8.536;2023-07-09T04:50:07;8.07;;;7.28;;
11608;SDS011;5860;52.018;8.536;2023-07-09T04:52:39;8.52;;;7.30;;
11608;SDS011;5860;52.018;8.536;2023-07-09T04:55:11;8.77;;;7.15;;
11608;SDS011;5860;52.018;8.536;2023-07-09T04:57:41;7.85;;;7.03;;
11608;SDS011;5860;52.018;8.536;2023-07-09T05:00:19;9.93;;;7.35;;
11608;SDS011;5860;52.018;8.536;2023-07-09T05:02:46;10.18;;;7.63;;
11608;SDS011;5860;52.018;8.536;2023-07-09T05:05:17;8.82;;;7.10;;
11608;SDS011;5860;52.018;8.536;2023-07-09T05:07:58;8.23;;;7.20;;
11608;SDS011;5860;52.018;8.536;2023-07-09T05:10:29;8.98;;;7.00;;
11608;SDS011;5860;52.018;8.536;2023-07-09T05:13:09;8.18;;;6.85;;
11608;SDS011;5860;52.018;8.536;2023-07-09T05:15:42;8.02;;;7.22;;
11608;SDS011;5860;52.018;8.536;2023-07-09T05:18:17;7.70;;;6.90;;
11608;SDS011;5860;52.018;8.536;2023-07-09T05:20:48;7.80;;;7.00;;
11608;SDS011;5860;52.018;8.536;2023-07-09T05:23:29;9.88;;;6.90;;
11608;SDS011;5860;52.018;8.536;2023-07-09T05:26:02;7.72;;;6.90;;
11608;SDS011;5860;52.018;8.536;2023-07-09T05:28:36;8.95;;;6.97;;
11608;SDS011;5860;52.018;8.536;2023-07-09T05:31:03;7.85;;;7.05;;
11608;SDS011;5860;52.018;8.536;2023-07-09T05:33:31;9.88;;;6.97;;
11608;SDS011;5860;52.018;8.536;2023-07-09T05:35:58;9.48;;;6.90;;
11608;SDS011;5860;52.018;8.536;2023-07-09T05:38:26;7.65;;;6.95;;
11608;SDS011;5860;52.018;8.536;2023-07-09T05:41:03;9.63;;;6.88;;
11608;SDS011;5860;52.018;8.536;2023-07-09T05:43:34;7.97;;;6.95;;
11608;SDS011;5860;52.018;8.536;2023-07-09T05:46:04;7.97;;;7.03;;
11608;SDS011;5860;52.018;8.536;2023-07-09T05:48:32;7.90;;;6.93;;
11608;SDS011;5860;52.018;8.536;2023-07-09T05:50:59;8.50;;;7.53;;
11608;SDS011;5860;52.018;8.536;2023-07-09T05:53:27;7.53;;;6.82;;
11608;SDS011;5860;52.018;8.536;2023-07-09T05:55:58;7.15;;;6.45;;
11608;SDS011;5860;52.018;8.536;2023-07-09T05:58:34;7.25;;;6.55;;
11608;SDS011;5860;52.018;8.536;2023-07-09T06:01:05;8.45;;;7.60;;
11608;SDS011;5860;52.018;8.536;2023-07-09T06:03:39;9.48;;;6.35;;
11608;SDS011;5860;52.018;8.536;2023-07-09T06:06:06;9.48;;;6.47;;
11608;SDS011;5860;52.018;8.536;2023-07-09T06:08:35;8.40;;;7.03;;
11608;SDS011;5860;52.018;8.536;2023-07-09T06:11:06;8.15;;;6.68;;
11608;SDS011;5860;52.018;8.536;2023-07-09T06:13:34;8.95;;;6.55;;
11608;SDS011;5860;52.018;8.536;2023-07-09T06:16:03;7.07;;;6.47;;
11608;SDS011;5860;52.018;8.536;2023-07-09T06:18:32;8.60;;;6.60;;
11608;SDS011;5860;52.018;8.536;2023-07-09T06:21:01;7.90;;;6.60;;
11608;SDS011;5860;52.018;8.536;2023-07-09T06:23:29;7.30;;;6.53;;
11608;SDS011;5860;52.018;8.536;2023-07-09T06:25:57;7.30;;;6.20;;
11608;SDS011;5860;52.018;8.536;2023-07-09T06:28:26;7.45;;;6.40;;
11608;SDS011;5860;52.018;8.536;2023-07-09T06:30:57;6.55;;;5.95;;
11608;SDS011;5860;52.018;8.536;2023-07-09T06:33:39;11.20;;;5.55;;
11608;SDS011;5860;52.018;8.536;2023-07-09T06:36:08;6.40;;;5.80;;
11608;SDS011;5860;52.018;8.536;2023-07-09T06:38:35;6.90;;;6.20;;
11608;SDS011;5860;52.018;8.536;2023-07-09T06:41:02;8.73;;;6.43;;
11608;SDS011;5860;52.018;8.536;2023-07-09T06:43:29;6.88;;;6.18;;
11608;SDS011;5860;52.018;8.536;2023-07-09T06:45:58;6.90;;;5.93;;
11608;SDS011;5860;52.018;8.536;2023-07-09T06:48:28;8.00;;;6.00;;
11608;SDS011;5860;52.018;8.536;2023-07-09T06:50:57;8.07;;;6.38;;
11608;SDS011;5860;52.018;8.536;2023-07-09T06:53:26;6.50;;;5.68;;
11608;SDS011;5860;52.018;8.536;2023-07-09T06:55:55;6.70;;;6.10;;
11608;SDS011;5860;52.018;8.536;2023-07-09T06:58:26;6.65;;;5.88;;
11608;SDS011;5860;52.018;8.536;2023-07-09T07:00:54;6.80;;;6.10;;
11608;SDS011;5860;52.018;8.536;2023-07-09T07:03:21;6.57;;;5.90;;
11608;SDS011;5860;52.018;8.536;2023-07-09T07:05:52;7.15;;;5.85;;
11608;SDS011;5860;52.018;8.536;2023-07-09T07:08:20;6.20;;;5.60;;
11608;SDS011;5860;52.018;8.536;2023-07-09T07:10:49;7.90;;;5.63;;
11608;SDS011;5860;52.018;8.536;2023-07-09T07:13:34;6.80;;;6.10;;
11608;SDS011;5860;52.018;8.536;2023-07-09T07:16:04;8.75;;;5.88;;
11608;SDS011;5860;52.018;8.536;2023-07-09T07:18:34;6.15;;;5.55;;
11608;SDS011;5860;52.018;8.536;2023-07-09T07:21:01;6.22;;;5.72;;
11608;SDS011;5860;52.018;8.536;2023-07-09T07:23:29;6.55;;;5.95;;
11608;SDS011;5860;52.018;8.536;2023-07-09T07:25:56;6.82;;;5.68;;
11608;SDS011;5860;52.018;8.536;2023-07-09T07:28:23;6.93;;;5.38;;
11608;SDS011;5860;52.018;8.536;2023-07-09T07:33:46;7.95;;;6.00;;
11608;SDS011;5860;52.018;8.536;2023-07-09T07:36:13;9.00;;;5.80;;
11608;SDS011;5860;52.018;8.536;2023-07-09T07:38:56;9.07;;;5.82;;
11608;SDS011;5860;52.018;8.536;2023-07-09T07:41:23;6.13;;;5.63;;
11608;SDS011;5860;52.018;8.536;2023-07-09T07:43:49;7.78;;;6.05;;
11608;SDS011;5860;52.018;8.536;2023-07-09T07:46:16;6.03;;;5.53;;
11608;SDS011;5860;52.018;8.536;2023-07-09T07:48:43;8.57;;;5.90;;
11608;SDS011;5860;52.018;8.536;2023-07-09T07:51:11;6.78;;;6.00;;
11608;SDS011;5860;52.018;8.536;2023-07-09T07:53:39;6.32;;;5.72;;
11608;SDS011;5860;52.018;8.536;2023-07-09T07:56:06;6.38;;;5.78;;
11608;SDS011;5860;52.018;8.536;2023-07-09T07:58:33;8.30;;;5.72;;
11608;SDS011;5860;52.018;8.536;2023-07-09T08:01:00;8.90;;;6.35;;
11608;SDS011;5860;52.018;8.536;2023-07-09T08:03:27;6.85;;;5.68;;
11608;SDS011;5860;52.018;8.536;2023-07-09T08:05:54;7.63;;;5.55;;
11608;SDS011;5860;52.018;8.536;2023-07-09T08:08:25;6.50;;;5.80;;
11608;SDS011;5860;52.018;8.536;2023-07-09T08:10:51;7.53;;;5.35;;
11608;SDS011;5860;52.018;8.536;2023-07-09T08:13:27;6.90;;;5.60;;
11608;SDS011;5860;52.018;8.536;2023-07-09T08:15:54;6.35;;;5.82;;
11608;SDS011;5860;52.018;8.536;2023-07-09T08:18:21;8.85;;;6.40;;
11608;SDS011;5860;52.018;8.536;2023-07-09T08:20:48;6.22;;;5.68;;
11608;SDS011;5860;52.018;8.536;2023-07-09T08:23:15;6.22;;;5.63;;
11608;SDS011;5860;52.018;8.536;2023-07-09T08:25:42;6.45;;;5.03;;
11608;SDS011;5860;52.018;8.536;2023-07-09T08:28:09;6.95;;;4.93;;
11608;SDS011;5860;52.018;8.536;2023-07-09T08:30:36;8.20;;;4.80;;
11608;SDS011;5860;52.018;8.536;2023-07-09T08:33:03;8.50;;;4.82;;
11608;SDS011;5860;52.018;8.536;2023-07-09T08:35:29;7.82;;;5.05;;
11608;SDS011;5860;52.018;8.536;2023-07-09T08:38:01;12.07;;;5.07;;
11608;SDS011;5860;52.018;8.536;2023-07-09T08:40:29;6.63;;;4.60;;
11608;SDS011;5860;52.018;8.536;2023-07-09T08:42:58;8.23;;;4.85;;
11608;SDS011;5860;52.018;8.536;2023-07-09T08:45:50;6.03;;;5.25;;
11608;SDS011;5860;52.018;8.536;2023-07-09T08:48:33;6.57;;;4.72;;
11608;SDS011;5860;52.018;8.536;2023-07-09T08:51:09;6.25;;;5.65;;
11608;SDS011;5860;52.018;8.536;2023-07-09T08:53:53;5.65;;;5.10;;
11608;SDS011;5860;52.018;8.536;2023-07-09T08:56:24;9.18;;;5.28;;
11608;SDS011;5860;52.018;8.536;2023-07-09T08:58:53;6.30;;;5.65;;
11608;SDS011;5860;52.018;8.536;2023-07-09T09:01:26;6.95;;;5.35;;
11608;SDS011;5860;52.018;8.536;2023-07-09T09:04:00;6.90;;;5.80;;
11608;SDS011;5860;52.018;8.536;2023-07-09T09:06:31;6.80;;;5.25;;
11608;SDS011;5860;52.018;8.536;2023-07-09T09:09:03;9.57;;;5.70;;
11608;SDS011;5860;52.018;8.536;2023-07-09T09:11:44;8.75;;;7.90;;
11608;SDS011;5860;52.018;8.536;2023-07-09T09:14:18;5.97;;;5.38;;
11608;SDS011;5860;52.018;8.536;2023-07-09T09:17:11;5.90;;;4.95;;
11608;SDS011;5860;52.018;8.536;2023-07-09T09:19:48;5.25;;;4.65;;
11608;SDS011;5860;52.018;8.536;2023-07-09T09:27:53;5.80;;;4.95;;
11608;SDS011;5860;52.018;8.536;2023-07-09T09:30:22;5.78;;;4.93;;
11608;SDS011;5860;52.018;8.536;2023-07-09T09:32:53;7.15;;;5.32;;
11608;SDS011;5860;52.018;8.536;2023-07-09T09:35:30;10.38;;;5.60;;
11608;SDS011;5860;52.018;8.536;2023-07-09T09:38:00;5.47;;;4.97;;
11608;SDS011;5860;52.018;8.536;2023-07-09T09:40:29;11.35;;;5.65;;
11608;SDS011;5860;52.018;8.536;2023-07-09T09:43:01;6.90;;;5.03;;
11608;SDS011;5860;52.018;8.536;2023-07-09T09:45:28;8.48;;;5.45;;
11608;SDS011;5860;52.018;8.536;2023-07-09T09:48:09;8.25;;;5.43;;
11608;SDS011;5860;52.018;8.536;2023-07-09T09:50:53;7.90;;;5.47;;
11608;SDS011;5860;52.018;8.536;2023-07-09T09:53:23;7.20;;;5.43;;
11608;SDS011;5860;52.018;8.536;2023-07-09T09:55:52;7.85;;;5.53;;
11608;SDS011;5860;52.018;8.536;2023-07-09T09:58:24;5.88;;;5.28;;
11608;SDS011;5860;52.018;8.536;2023-07-09T10:00:55;6.85;;;5.43;;
11608;SDS011;5860;52.018;8.536;2023-07-09T10:03:32;6.72;;;5.15;;
11608;SDS011;5860;52.018;8.536;2023-07-09T10:06:03;6.70;;;5.72;;
11608;SDS011;5860;52.018;8.536;2023-07-09T10:08:45;8.23;;;5.25;;
11608;SDS011;5860;52.018;8.536;2023-07-09T10:14:22;8.05;;;5.50;;
11608;SDS011;5860;52.018;8.536;2023-07-09T10:16:53;9.45;;;5.13;;
11608;SDS011;5860;52.018;8.536;2023-07-09T10:19:32;7.60;;;5.80;;
11608;SDS011;5860;52.018;8.536;2023-07-09T10:22:13;8.10;;;5.38;;
11608;SDS011;5860;52.018;8.536;2023-07-09T10:27:51;7.63;;;5.28;;
11608;SDS011;5860;52.018;8.536;2023-07-09T10:30:45;6.65;;;4.90;;
11608;SDS011;5860;52.018;8.536;2023-07-09T10:33:51;10.15;;;5.60;;
11608;SDS011;5860;52.018;8.536;2023-07-09T10:39:19;8.43;;;5.35;;
11608;SDS011;5860;52.018;8.536;2023-07-09T10:41:52;8.02;;;5.35;;
11608;SDS011;5860;52.018;8.536;2023-07-09T10:44:29;9.82;;;8.23;;
11608;SDS011;5860;52.018;8.536;2023-07-09T10:47:03;6.75;;;6.05;;
11608;SDS011;5860;52.018;8.536;2023-07-09T10:49:37;8.85;;;5.60;;
11608;SDS011;5860;52.018;8.536;2023-07-09T10:55:08;7.60;;;6.03;;
11608;SDS011;5860;52.018;8.536;2023-07-09T10:57:59;11.77;;;5.80;;
11608;SDS011;5860;52.018;8.536;2023-07-09T11:00:36;8.45;;;5.40;;
11608;SDS011;5860;52.018;8.536;2023-07-09T11:03:16;7.78;;;5.75;;
11608;SDS011;5860;52.018;8.536;2023-07-09T11:06:18;7.03;;;5.88;;
11608;SDS011;5860;52.018;8.536;2023-07-09T11:08:50;8.43;;;5.80;;
11608;SDS011;5860;52.018;8.536;2023-07-09T11:13:57;6.28;;;5.50;;
11608;SDS011;5860;52.018;8.536;2023-07-09T11:16:30;8.85;;;5.82;;
11608;SDS011;5860;52.018;8.536;2023-07-09T11:19:03;6.90;;;6.15;;
11608;SDS011;5860;52.018;8.536;2023-07-09T11:21:32;6.85;;;5.63;;
11608;SDS011;5860;52.018;8.536;2023-07-09T11:24:02;6.90;;;5.22;;
11608;SDS011;5860;52.018;8.536;2023-07-09T11:26:33;7.35;;;5.50;;
11608;SDS011;5860;52.018;8.536;2023-07-09T11:31:36;10.40;;;5.43;;
11608;SDS011;5860;52.018;8.536;2023-07-09T11:34:09;9.98;;;5.60;;
11608;SDS011;5860;52.018;8.536;2023-07-09T11:36:48;8.85;;;6.07;;
11608;SDS011;5860;52.018;8.536;2023-07-09T11:42:23;8.95;;;5.10;;
11608;SDS011;5860;52.018;8.536;2023-07-09T11:44:51;11.73;;;5.18;;
11608;SDS011;5860;52.018;8.536;2023-07-09T11:47:36;7.15;;;5.32;;
11608;SDS011;5860;52.018;8.536;2023-07-09T11:50:28;8.88;;;4.80;;
11608;SDS011;5860;52.018;8.536;2023-07-09T11:55:48;7.25;;;4.65;;
11608;SDS011;5860;52.018;8.536;2023-07-09T11:58:16;8.60;;;5.22;;
11608;SDS011;5860;52.018;8.536;2023-07-09T12:00:55;6.78;;;4.95;;
11608;SDS011;5860;52.018;8.536;2023-07-09T12:03:32;6.72;;;5.30;;
11608;SDS011;5860;52.018;8.536;2023-07-09T12:06:05;12.10;;;5.10;;
11608;SDS011;5860;52.018;8.536;2023-07-09T12:08:43;7.97;;;5.28;;
11608;SDS011;5860;52.018;8.536;2023-07-09T12:11:19;8.23;;;5.20;;
11608;SDS011;5860;52.018;8.536;2023-07-09T12:14:01;7.10;;;5.65;;
11608;SDS011;5860;52.018;8.536;2023-07-09T12:16:38;8.82;;;5.47;;
11608;SDS011;5860;52.018;8.536;2023-07-09T12:19:08;8.32;;;5.60;;
11608;SDS011;5860;52.018;8.536;2023-07-09T12:21:39;6.57;;;5.13;;
11608;SDS011;5860;52.018;8.536;2023-07-09T12:24:15;7.55;;;5.18;;
11608;SDS011;5860;52.018;8.536;2023-07-09T12:26:49;7.45;;;4.80;;
11608;SDS011;5860;52.018;8.536;2023-07-09T12:29:18;7.55;;;5.22;;
11608;SDS011;5860;52.018;8.536;2023-07-09T12:31:45;5.55;;;4.22;;
11608;SDS011;5860;52.018;8.536;2023-07-09T12:34:13;6.93;;;5.18;;
11608;SDS011;5860;52.018;8.536;2023-07-09T12:36:45;5.47;;;4.45;;
11608;SDS011;5860;52.018;8.536;2023-07-09T12:39:23;8.15;;;4.88;;
11608;SDS011;5860;52.018;8.536;2023-07-09T12:41:54;10.35;;;4.93;;
11608;SDS011;5860;52.018;8.536;2023-07-09T12:44:23;8.73;;;4.38;;
11608;SDS011;5860;52.018;8.536;2023-07-09T12:46:52;5.95;;;4.97;;
11608;SDS011;5860;52.018;8.536;2023-07-09T12:49:21;9.07;;;4.70;;
11608;SDS011;5860;52.018;8.536;2023-07-09T12:51:50;10.07;;;5.10;;
11608;SDS011;5860;52.018;8.536;2023-07-09T12:54:18;9.00;;;4.65;;
11608;SDS011;5860;52.018;8.536;2023-07-09T12:56:50;10.63;;;4.65;;
11608;SDS011;5860;52.018;8.536;2023-07-09T12:59:23;9.65;;;4.43;;
11608;SDS011;5860;52.018;8.536;2023-07-09T13:02:16;7.55;;;4.85;;
11608;SDS011;5860;52.018;8.536;2023-07-09T13:04:46;4.97;;;4.15;;
11608;SDS011;5860;52.018;8.536;2023-07-09T13:07:33;7.60;;;4.20;;
11608;SDS011;5860;52.018;8.536;2023-07-09T13:10:15;5.93;;;4.40;;
11608;SDS011;5860;52.018;8.536;2023-07-09T13:12:53;6.13;;;3.88;;
11608;SDS011;5860;52.018;8.536;2023-07-09T13:15:23;7.20;;;3.88;;
11608;SDS011;5860;52.018;8.536;2023-07-09T13:18:01;9.65;;;4.40;;
11608;SDS011;5860;52.018;8.536;2023-07-09T13:20:33;4.97;;;4.05;;
11608;SDS011;5860;52.018;8.536;2023-07-09T13:23:04;6.20;;;4.28;;
11608;SDS011;5860;52.018;8.536;2023-07-09T13:25:41;6.72;;;4.10;;
11608;SDS011;5860;52.018;8.536;2023-07-09T13:28:14;6.75;;;4.63;;
11608;SDS011;5860;52.018;8.536;2023-07-09T13:30:56;8.82;;;4.22;;
11608;SDS011;5860;52.018;8.536;2023-07-09T13:33:26;6.07;;;4.18;;
11608;SDS011;5860;52.018;8.536;2023-07-09T13:35:53;8.75;;;4.20;;
11608;SDS011;5860;52.018;8.536;2023-07-09T13:38:21;7.15;;;4.40;;
11608;SDS011;5860;52.018;8.536;2023-07-09T13:40:50;9.00;;;4.25;;
11608;SDS011;5860;52.018;8.536;2023-07-09T13:43:26;6.85;;;4.45;;
11608;SDS011;5860;52.018;8.536;2023-07-09T13:45:59;7.60;;;4.35;;
11608;SDS011;5860;52.018;8.536;2023-07-09T13:48:30;6.05;;;4.63;;
11608;SDS011;5860;52.018;8.536;2023-07-09T13:50:58;5.97;;;4.55;;
11608;SDS011;5860;52.018;8.536;2023-07-09T13:53:26;7.60;;;4.70;;
11608;SDS011;5860;52.018;8.536;2023-07-09T13:55:58;6.97;;;4.25;;
11608;SDS011;5860;52.018;8.536;2023-07-09T13:58:26;6.82;;;4.63;;
11608;SDS011;5860;52.018;8.536;2023-07-09T14:00:58;5.70;;;4.60;;
11608;SDS011;5860;52.018;8.536;2023-07-09T14:03:32;9.90;;;4.75;;
11608;SDS011;5860;52.018;8.536;2023-07-09T14:06:01;6.93;;;4.80;;
11608;SDS011;5860;52.018;8.536;2023-07-09T14:08:28;7.30;;;5.00;;
11608;SDS011;5860;52.018;8.536;2023-07-09T14:10:55;6.70;;;4.88;;
11608;SDS011;5860;52.018;8.536;2023-07-09T14:13:23;5.22;;;4.72;;
11608;SDS011;5860;52.018;8.536;2023-07-09T14:15:51;5.70;;;4.60;;
11608;SDS011;5860;52.018;8.536;2023-07-09T14:18:19;9.05;;;4.68;;
11608;SDS011;5860;52.018;8.536;2023-07-09T14:20:48;6.75;;;4.43;;
11608;SDS011;5860;52.018;8.536;2023-07-09T14:23:17;6.38;;;4.32;;
11608;SDS011;5860;52.018;8.536;2023-07-09T14:25:45;9.10;;;5.20;;
11608;SDS011;5860;52.018;8.536;2023-07-09T14:28:13;8.70;;;5.22;;
11608;SDS011;5860;52.018;8.536;2023-07-09T14:30:46;5.30;;;4.05;;
11608;SDS011;5860;52.018;8.536;2023-07-09T14:33:19;6.45;;;4.97;;
11608;SDS011;5860;52.018;8.536;2023-07-09T14:35:47;7.35;;;4.88;;
11608;SDS011;5860;52.018;8.536;2023-07-09T14:38:19;7.22;;;4.43;;
11608;SDS011;5860;52.018;8.536;2023-07-09T14:40:52;8.20;;;5.05;;
11608;SDS011;5860;52.018;8.536;2023-07-09T14:43:22;7.40;;;4.80;;
11608;SDS011;5860;52.018;8.536;2023-07-09T14:45:49;7.65;;;5.18;;
11608;SDS011;5860;52.018;8.536;2023-07-09T14:48:16;6.75;;;4.75;;
11608;SDS011;5860;52.018;8.536;2023-07-09T14:50:45;5.80;;;4.82;;
11608;SDS011;5860;52.018;8.536;2023-07-09T14:53:14;7.65;;;4.80;;
11608;SDS011;5860;52.018;8.536;2023-07-09T14:55:43;6.63;;;5.20;;
11608;SDS011;5860;52.018;8.536;2023-07-09T14:58:15;6.88;;;4.22;;
11608;SDS011;5860;52.018;8.536;2023-07-09T15:00:44;5.57;;;4.60;;
11608;SDS011;5860;52.018;8.536;2023-07-09T15:03:23;9.18;;;5.22;;
11608;SDS011;5860;52.018;8.536;2023-07-09T15:05:53;7.20;;;5.38;;
11608;SDS011;5860;52.018;8.536;2023-07-09T15:08:23;6.35;;;5.03;;
11608;SDS011;5860;52.018;8.536;2023-07-09T15:10:52;7.10;;;4.90;;
11608;SDS011;5860;52.018;8.536;2023-07-09T15:13:29;6.25;;;4.88;;
11608;SDS011;5860;52.018;8.536;2023-07-09T15:15:58;6.63;;;5.00;;
11608;SDS011;5860;52.018;8.536;2023-07-09T15:18:26;11.00;;;5.00;;
11608;SDS011;5860;52.018;8.536;2023-07-09T15:20:54;6.00;;;4.53;;
11608;SDS011;5860;52.018;8.536;2023-07-09T15:23:24;6.65;;;4.57;;
11608;SDS011;5860;52.018;8.536;2023-07-09T15:25:51;8.88;;;5.00;;
11608;SDS011;5860;52.018;8.536;2023-07-09T15:28:18;8.35;;;4.93;;
11608;SDS011;5860;52.018;8.536;2023-07-09T15:30:45;6.70;;;4.78;;
11608;SDS011;5860;52.018;8.536;2023-07-09T15:33:14;7.18;;;5.30;;
11608;SDS011;5860;52.018;8.536;2023-07-09T15:35:43;11.93;;;5.07;;
11608;SDS011;5860;52.018;8.536;2023-07-09T15:38:19;7.30;;;4.30;;
11608;SDS011;5860;52.018;8.536;2023-07-09T15:40:55;9.48;;;5.10;;
11608;SDS011;5860;52.018;8.536;2023-07-09T15:43:23;7.53;;;5.25;;
11608;SDS011;5860;52.018;8.536;2023-07-09T15:45:51;7.30;;;5.38;;
11608;SDS011;5860;52.018;8.536;2023-07-09T15:48:22;6.70;;;5.18;;
11608;SDS011;5860;52.018;8.536;2023-07-09T15:50:56;7.00;;;5.35;;
11608;SDS011;5860;52.018;8.536;2023-07-09T15:53:24;7.90;;;5.00;;
11608;SDS011;5860;52.018;8.536;2023-07-09T15:55:53;10.32;;;5.53;;
11608;SDS011;5860;52.018;8.536;2023-07-09T15:58:37;9.32;;;5.45;;